createdAt,value
2019-01-20T00:00:02.868Z,100972.70
2019-01-20T00:02:33.951Z,100970.14
2019-01-20T00:05:06.616Z,100967.09
2019-01-20T00:07:37.664Z,100958.63
2019-01-20T00:10:09.733Z,100960.09
2019-01-20T00:12:40.788Z,100964.09
2019-01-20T00:15:11.972Z,100967.23
2019-01-20T00:17:43.099Z,100962.66
2019-01-20T00:20:14.583Z,100965.67
2019-01-20T00:22:45.976Z,100961.08
2019-01-20T00:25:17.703Z,100959.16
2019-01-20T00:27:48.845Z,100957.23
2019-01-20T00:30:22.662Z,100955.90
2019-01-20T00:32:55.683Z,100961.56
2019-01-20T00:35:28.824Z,100957.73
2019-01-20T00:37:59.918Z,100958.21
2019-01-20T00:40:32.442Z,100956.63
2019-01-20T00:43:03.659Z,100947.67
2019-01-20T00:45:35.127Z,100956.14
2019-01-20T00:48:05.870Z,100955.75
2019-01-20T00:50:37.428Z,100953.03
2019-01-20T00:53:09.091Z,100955.84
2019-01-20T00:55:40.206Z,100961.89
2019-01-20T00:58:12.048Z,100958.48
2019-01-20T01:00:43.239Z,100948.10
2019-01-20T01:03:15.024Z,100951.69
2019-01-20T01:05:46.247Z,100945.32
2019-01-20T01:08:18.476Z,100946.27
2019-01-20T01:10:50.061Z,100944.50
2019-01-20T01:13:21.288Z,100938.44
2019-01-20T01:15:52.322Z,100945.13
2019-01-20T01:18:23.809Z,100943.40
2019-01-20T01:20:55.193Z,100947.88
2019-01-20T01:29:51.016Z,100947.32
2019-01-20T01:32:22.148Z,100944.05
2019-01-20T01:34:53.752Z,100947.64
2019-01-20T01:37:25.130Z,100942.43
2019-01-20T01:39:56.070Z,100939.48
2019-01-20T01:42:27.840Z,100938.92
2019-01-20T01:44:59.307Z,100938.59
2019-01-20T01:47:30.323Z,100934.54
2019-01-20T01:50:01.693Z,100934.78
2019-01-20T01:52:33.142Z,100931.27
2019-01-20T01:55:04.248Z,100937.09
2019-01-20T01:57:35.838Z,100934.12
2019-01-20T02:00:11.660Z,100927.91
2019-01-20T02:02:42.349Z,100936.69
2019-01-20T02:05:13.042Z,100936.03
2019-01-20T02:07:44.045Z,100935.88
2019-01-20T02:10:21.289Z,100929.03
2019-01-20T02:12:53.573Z,100932.47
2019-01-20T02:15:24.850Z,100935.72
2019-01-20T02:17:56.155Z,100932.37
2019-01-20T02:20:27.210Z,100931.89
2019-01-20T02:22:58.225Z,100935.95
2019-01-20T02:25:29.703Z,100932.78
2019-01-20T02:28:01.071Z,100936.36
2019-01-20T02:30:33.094Z,100938.67
2019-01-20T02:33:04.065Z,100945.79
2019-01-20T02:35:35.462Z,100940.21
2019-01-20T02:38:06.203Z,100945.62
2019-01-20T02:40:37.625Z,100955.68
2019-01-20T02:43:08.262Z,100950.57
2019-01-20T02:45:39.283Z,100945.86
2019-01-20T02:48:10.346Z,100946.58
2019-01-20T02:50:41.415Z,100951.39
2019-01-20T02:53:12.786Z,100946.48
2019-01-20T02:55:44.133Z,100948.81
2019-01-20T02:58:15.574Z,100953.09
2019-01-20T03:00:50.077Z,100951.43
2019-01-20T03:03:21.044Z,100950.05
2019-01-20T03:05:52.097Z,100944.78
2019-01-20T03:08:23.200Z,100941.73
2019-01-20T03:10:54.226Z,100946.16
2019-01-20T03:13:25.431Z,100949.89
2019-01-20T03:15:56.475Z,100948.28
2019-01-20T03:18:27.145Z,100950.97
2019-01-20T03:20:57.943Z,100949.95
2019-01-20T03:23:28.709Z,100948.67
2019-01-20T03:29:24.967Z,100942.25
2019-01-20T03:31:56.420Z,100941.69
2019-01-20T03:34:27.716Z,100944.90
2019-01-20T03:36:59.245Z,100945.34
2019-01-20T03:39:30.177Z,100935.48
2019-01-20T03:42:01.369Z,100941.07
2019-01-20T03:44:32.449Z,100937.47
2019-01-20T03:47:04.045Z,100938.63
2019-01-20T03:49:35.769Z,100939.26
2019-01-20T03:52:06.829Z,100932.39
2019-01-20T03:54:38.239Z,100935.41
2019-01-20T03:57:08.908Z,100932.69
2019-01-20T03:59:39.939Z,100930.95
2019-01-20T04:02:11.285Z,100926.14
2019-01-20T04:04:41.900Z,100928.08
2019-01-20T04:07:14.051Z,100931.88
2019-01-20T04:09:45.043Z,100932.39
2019-01-20T04:12:20.728Z,100936.29
2019-01-20T04:14:48.412Z,100931.63
2019-01-20T04:17:19.355Z,100933.72
2019-01-20T04:19:50.297Z,100937.45
2019-01-20T04:22:21.340Z,100940.22
2019-01-20T04:24:51.981Z,100942.20
2019-01-20T04:27:23.305Z,100942.42
2019-01-20T04:29:54.433Z,100940.69
2019-01-20T04:32:25.409Z,100941.02
2019-01-20T04:34:56.431Z,100944.14
2019-01-20T04:37:27.455Z,100942.36
2019-01-20T04:39:58.743Z,100938.48
2019-01-20T04:42:30.146Z,100937.50
2019-01-20T04:45:01.847Z,100936.77
2019-01-20T04:47:32.819Z,100944.46
2019-01-20T04:50:05.750Z,100948.05
2019-01-20T04:52:39.878Z,100947.23
2019-01-20T04:55:14.096Z,100949.11
2019-01-20T04:57:49.243Z,100945.43
2019-01-20T05:00:22.756Z,100947.20
2019-01-20T05:02:57.141Z,100947.03
2019-01-20T05:05:28.274Z,100944.94
2019-01-20T05:07:59.349Z,100944.16
2019-01-20T05:10:30.949Z,100941.37
2019-01-20T05:13:02.317Z,100944.91
2019-01-20T05:15:33.684Z,100951.00
2019-01-20T05:18:05.176Z,100955.85
2019-01-20T05:20:36.480Z,100957.59
2019-01-20T05:23:08.458Z,100953.55
2019-01-20T05:25:39.675Z,100961.83
2019-01-20T05:28:11.105Z,100967.04
2019-01-20T05:30:42.476Z,100968.23
2019-01-20T05:33:13.567Z,100957.19
2019-01-20T05:35:44.933Z,100962.75
2019-01-20T05:38:16.047Z,100966.47
2019-01-20T05:40:46.714Z,100958.51
2019-01-20T05:43:17.787Z,100962.33
2019-01-20T05:45:49.403Z,100964.42
2019-01-20T05:48:20.441Z,100956.80
2019-01-20T05:50:51.762Z,100961.88
2019-01-20T05:53:23.180Z,100957.16
2019-01-20T05:55:54.149Z,100967.33
2019-01-20T05:58:25.544Z,100961.48
2019-01-20T06:00:56.601Z,100961.28
2019-01-20T06:03:27.680Z,100968.36
2019-01-20T06:05:58.955Z,100962.63
2019-01-20T06:08:31.176Z,100955.30
2019-01-20T06:11:02.544Z,100964.90
2019-01-20T06:13:35.500Z,100959.33
2019-01-20T06:16:06.242Z,100959.91
2019-01-20T06:18:37.216Z,100955.41
2019-01-20T06:21:07.969Z,100957.98
2019-01-20T06:23:39.052Z,100956.22
2019-01-20T06:26:10.112Z,100956.22
2019-01-20T06:28:41.600Z,100962.90
2019-01-20T06:31:12.976Z,100963.75
2019-01-20T06:33:43.992Z,100975.22
2019-01-20T06:36:14.727Z,100970.36
2019-01-20T06:38:45.615Z,100972.28
2019-01-20T06:41:16.312Z,100975.32
2019-01-20T06:43:47.133Z,100979.92
2019-01-20T06:46:17.816Z,100981.58
2019-01-20T06:48:48.453Z,100983.09
2019-01-20T06:51:19.616Z,100989.65
2019-01-20T06:53:50.640Z,100993.16
2019-01-20T06:56:21.351Z,100996.12
2019-01-20T06:58:52.970Z,100994.38
2019-01-20T07:01:23.971Z,100999.86
2019-01-20T07:03:54.887Z,101003.37
2019-01-20T07:06:25.984Z,101011.90
2019-01-20T07:08:57.827Z,101009.72
2019-01-20T07:11:28.675Z,101009.84
2019-01-20T07:13:59.344Z,101013.56
2019-01-20T07:16:30.436Z,101018.28
2019-01-20T07:19:01.176Z,101022.86
2019-01-20T07:21:31.863Z,101026.41
2019-01-20T07:24:03.288Z,101035.20
2019-01-20T07:26:33.921Z,101035.20
2019-01-20T07:29:04.986Z,101033.15
2019-01-20T07:31:35.666Z,101031.75
2019-01-20T07:34:06.297Z,101030.40
2019-01-20T07:36:36.970Z,101034.48
2019-01-20T07:39:09.229Z,101037.53
2019-01-20T07:41:40.119Z,101041.04
2019-01-20T07:44:10.733Z,101045.44
2019-01-20T07:46:41.956Z,101052.41
2019-01-20T07:49:12.617Z,101055.84
2019-01-20T07:51:43.343Z,101052.08
2019-01-20T07:54:14.375Z,101057.28
2019-01-20T07:56:48.174Z,101057.22
2019-01-20T07:59:19.377Z,101050.64
2019-01-20T08:01:50.234Z,101057.13
2019-01-20T08:04:21.336Z,101063.30
2019-01-20T08:06:52.319Z,101071.38
2019-01-20T08:09:23.299Z,101067.34
2019-01-20T08:11:54.069Z,101070.68
2019-01-20T08:14:25.566Z,101072.71
2019-01-20T08:16:56.309Z,101083.45
2019-01-20T08:19:27.275Z,101087.14
2019-01-20T08:21:58.490Z,101084.20
2019-01-20T08:24:29.478Z,101084.48
2019-01-20T08:27:00.400Z,101083.06
2019-01-20T08:29:31.365Z,101088.34
2019-01-20T08:32:02.052Z,101088.73
2019-01-20T08:34:32.673Z,101084.41
2019-01-20T08:37:04.399Z,101092.06
2019-01-20T08:39:35.085Z,101091.31
2019-01-20T08:42:05.743Z,101094.08
2019-01-20T08:44:41.526Z,101091.37
2019-01-20T08:47:33.768Z,101100.34
2019-01-20T08:50:10.617Z,101105.19
2019-01-20T08:52:41.536Z,101107.45
2019-01-20T08:55:12.797Z,101104.08
2019-01-20T08:57:43.835Z,101118.67
2019-01-20T09:00:17.505Z,101115.65
2019-01-20T09:02:48.527Z,101117.37
2019-01-20T09:05:19.276Z,101120.53
2019-01-20T09:07:50.325Z,101119.04
2019-01-20T09:10:27.471Z,101125.25
2019-01-20T09:13:01.620Z,101124.98
2019-01-20T09:15:32.838Z,101122.77
2019-01-20T09:18:04.111Z,101130.45
2019-01-20T09:20:34.801Z,101133.47
2019-01-20T09:23:06.076Z,101137.66
2019-01-20T09:25:37.201Z,101143.20
2019-01-20T09:28:08.140Z,101144.55
2019-01-20T09:30:39.275Z,101147.42
2019-01-20T09:33:10.038Z,101152.05
2019-01-20T09:35:41.012Z,101158.16
2019-01-20T09:38:11.919Z,101158.16
2019-01-20T09:40:42.613Z,101157.27
2019-01-20T09:43:13.313Z,101152.53
2019-01-20T09:45:44.148Z,101157.92
2019-01-20T09:48:16.950Z,101156.20
2019-01-20T09:50:47.662Z,101156.02
2019-01-20T09:53:18.301Z,101144.70
2019-01-20T09:55:49.330Z,101155.89
2019-01-20T09:58:20.052Z,101157.36
2019-01-20T10:00:51.009Z,101162.40
2019-01-20T10:03:21.713Z,101160.67
2019-01-20T10:05:52.666Z,101164.48
2019-01-20T10:08:23.649Z,101160.50
2019-01-20T10:10:54.705Z,101164.14
2019-01-20T10:13:25.352Z,101161.16
2019-01-20T10:15:56.023Z,101167.12
2019-01-20T10:18:27.449Z,101168.27
2019-01-20T10:20:58.723Z,101166.35
2019-01-20T10:23:29.331Z,101173.73
2019-01-20T10:26:00.101Z,101174.53
2019-01-20T10:28:30.758Z,101177.23
2019-01-20T10:31:01.548Z,101176.34
2019-01-20T10:33:32.229Z,101180.12
2019-01-20T10:36:04.733Z,101182.33
2019-01-20T10:38:37.451Z,101185.38
2019-01-20T10:41:08.113Z,101183.63
2019-01-20T10:43:38.809Z,101177.84
2019-01-20T10:46:09.729Z,101184.43
2019-01-20T10:48:40.767Z,101183.27
2019-01-20T10:51:11.689Z,101184.44
2019-01-20T10:53:42.893Z,101179.95
2019-01-20T10:56:16.459Z,101178.16
2019-01-20T10:58:47.431Z,101174.22
2019-01-20T11:01:18.549Z,101174.95
2019-01-20T11:03:49.290Z,101180.52
2019-01-20T11:06:20.393Z,101178.72
2019-01-20T11:08:51.024Z,101181.86
2019-01-20T11:11:21.874Z,101183.80
2019-01-20T11:13:53.141Z,101185.43
2019-01-20T11:16:23.760Z,101184.75
2019-01-20T11:18:54.588Z,101181.88
2019-01-20T11:21:25.276Z,101176.13
2019-01-20T11:23:55.999Z,101173.02
2019-01-20T11:26:26.667Z,101171.08
2019-01-20T11:28:57.328Z,101176.50
2019-01-20T11:31:31.098Z,101177.69
2019-01-20T11:34:01.796Z,101171.25
2019-01-20T11:36:32.806Z,101173.50
2019-01-20T11:39:04.789Z,101172.61
2019-01-20T11:41:37.460Z,101170.69
2019-01-20T11:44:08.499Z,101177.38
2019-01-20T11:46:39.462Z,101178.34
2019-01-20T11:49:10.353Z,101187.28
2019-01-20T11:51:41.232Z,101186.66
2019-01-20T11:54:12.131Z,101186.13
2019-01-20T11:56:42.778Z,101182.16
2019-01-20T11:59:13.841Z,101188.92
2019-01-20T12:01:45.209Z,101180.48
2019-01-20T12:04:15.943Z,101180.48
2019-01-20T12:06:46.561Z,101187.62
2019-01-20T12:09:19.799Z,101191.17
2019-01-20T12:11:50.482Z,101195.36
2019-01-20T12:14:24.167Z,101192.58
2019-01-20T12:16:54.201Z,101193.47
2019-01-20T12:19:25.178Z,101187.11
2019-01-20T12:21:56.501Z,101191.55
2019-01-20T12:24:27.803Z,101189.44
2019-01-20T12:26:58.866Z,101184.55
2019-01-20T12:29:29.557Z,101193.08
2019-01-20T12:32:00.164Z,101190.75
2019-01-20T12:34:31.972Z,101188.00
2019-01-20T12:37:02.846Z,101190.52
2019-01-20T12:39:33.861Z,101193.61
2019-01-20T12:42:04.635Z,101189.78
2019-01-20T12:44:35.279Z,101200.42
2019-01-20T12:47:05.962Z,101192.48
2019-01-20T12:49:36.946Z,101192.46
2019-01-20T12:52:08.714Z,101192.52
2019-01-20T12:54:41.099Z,101191.71
2019-01-20T12:57:12.827Z,101194.42
2019-01-20T12:59:44.575Z,101187.99
2019-01-20T13:02:15.863Z,101191.25
2019-01-20T13:04:46.560Z,101186.09
2019-01-20T13:07:17.950Z,101189.69
2019-01-20T13:09:48.612Z,101191.58
2019-01-20T13:12:19.599Z,101189.69
2019-01-20T13:14:50.221Z,101195.23
2019-01-20T13:17:21.542Z,101195.03
2019-01-20T13:19:52.500Z,101188.48
2019-01-20T13:22:23.119Z,101190.28
2019-01-20T13:24:53.761Z,101187.28
2019-01-20T13:27:24.384Z,101189.02
2019-01-20T13:29:55.368Z,101188.95
2019-01-20T13:32:25.981Z,101185.59
2019-01-20T13:34:56.944Z,101186.61
2019-01-20T13:37:30.385Z,101187.00
2019-01-20T13:40:00.998Z,101192.79
2019-01-20T13:42:32.071Z,101199.93
2019-01-20T13:45:03.469Z,101195.29
2019-01-20T13:47:34.428Z,101195.36
2019-01-20T13:50:06.295Z,101196.91
2019-01-20T13:52:37.009Z,101201.11
2019-01-20T13:55:09.545Z,101193.88
2019-01-20T13:57:40.950Z,101195.14
2019-01-20T14:00:17.125Z,101192.93
2019-01-20T14:02:47.868Z,101193.63
2019-01-20T14:05:18.697Z,101193.41
2019-01-20T14:07:49.333Z,101199.58
2019-01-20T14:10:20.572Z,101202.33
2019-01-20T14:12:54.328Z,101202.21
2019-01-20T14:15:25.794Z,101198.23
2019-01-20T14:17:56.412Z,101198.08
2019-01-20T14:20:27.173Z,101202.84
2019-01-20T14:22:58.407Z,101206.30
2019-01-20T14:25:29.078Z,101202.87
2019-01-20T14:28:00.006Z,101213.06
2019-01-20T14:30:31.880Z,101209.89
2019-01-20T14:33:04.925Z,101216.20
2019-01-20T14:35:35.570Z,101213.98
2019-01-20T14:38:06.488Z,101220.78
2019-01-20T14:40:37.134Z,101222.99
2019-01-20T14:43:07.959Z,101222.39
2019-01-20T14:45:38.634Z,101223.08
2019-01-20T14:48:09.644Z,101221.54
2019-01-20T14:50:40.371Z,101218.84
2019-01-20T14:53:11.151Z,101223.27
2019-01-20T14:55:42.311Z,101224.58
2019-01-20T14:58:13.874Z,101220.06
2019-01-20T15:00:44.587Z,101228.10
2019-01-20T15:03:15.618Z,101222.58
2019-01-20T15:05:46.315Z,101225.82
2019-01-20T15:08:16.952Z,101227.28
2019-01-20T15:10:47.620Z,101227.48
2019-01-20T15:13:18.330Z,101229.70
2019-01-20T15:15:49.062Z,101236.70
2019-01-20T15:18:20.182Z,101238.66
2019-01-20T15:20:50.892Z,101239.73
2019-01-20T15:23:21.541Z,101242.91
2019-01-20T15:25:52.128Z,101240.56
2019-01-20T15:28:25.945Z,101247.42
2019-01-20T15:30:56.631Z,101250.88
2019-01-20T15:33:27.247Z,101261.15
2019-01-20T15:35:58.462Z,101265.95
2019-01-20T15:38:29.096Z,101261.79
2019-01-20T15:41:00.102Z,101259.20
2019-01-20T15:43:31.269Z,101258.18
2019-01-20T15:46:02.011Z,101260.95
2019-01-20T15:48:32.900Z,101260.69
2019-01-20T15:51:06.522Z,101268.73
2019-01-20T15:53:37.239Z,101261.74
2019-01-20T15:56:07.969Z,101258.94
2019-01-20T15:58:38.995Z,101265.31
2019-01-20T16:01:10.027Z,101270.70
2019-01-20T16:03:40.792Z,101267.30
2019-01-20T16:06:11.624Z,101267.33
2019-01-20T16:08:42.339Z,101278.30
2019-01-20T16:11:13.038Z,101276.77
2019-01-20T16:13:43.758Z,101280.26
2019-01-20T16:16:15.102Z,101292.38
2019-01-20T16:18:45.746Z,101288.68
2019-01-20T16:21:16.824Z,101290.94
2019-01-20T16:23:47.501Z,101288.55
2019-01-20T16:26:18.408Z,101281.44
2019-01-20T16:28:49.377Z,101293.98
2019-01-20T16:31:20.060Z,101301.70
2019-01-20T16:33:50.699Z,101300.44
2019-01-20T16:36:21.445Z,101301.06
2019-01-20T16:38:52.180Z,101302.19
2019-01-20T16:41:22.987Z,101309.70
2019-01-20T16:43:53.683Z,101309.13
2019-01-20T16:46:24.622Z,101314.43
2019-01-20T16:48:55.359Z,101311.87
2019-01-20T16:51:26.116Z,101311.78
2019-01-20T16:53:57.155Z,101318.25
2019-01-20T16:56:28.065Z,101317.53
2019-01-20T16:58:58.752Z,101317.83
2019-01-20T17:01:29.454Z,101318.19
2019-01-20T17:04:00.099Z,101320.91
2019-01-20T17:06:30.850Z,101321.37
2019-01-20T17:09:01.884Z,101327.45
2019-01-20T17:11:32.798Z,101326.14
2019-01-20T17:14:03.645Z,101330.76
2019-01-20T17:16:34.507Z,101332.37
2019-01-20T17:19:05.244Z,101334.59
2019-01-20T17:21:36.229Z,101333.70
2019-01-20T17:24:06.914Z,101334.55
2019-01-20T17:26:37.940Z,101336.84
2019-01-20T17:29:08.931Z,101347.33
2019-01-20T17:31:39.581Z,101341.33
2019-01-20T17:34:10.260Z,101347.39
2019-01-20T17:36:41.000Z,101349.99
2019-01-20T17:39:12.297Z,101354.34
2019-01-20T17:41:43.005Z,101349.42
2019-01-20T17:44:13.816Z,101348.98
2019-01-20T17:46:44.547Z,101360.93
2019-01-20T17:49:15.225Z,101363.67
2019-01-20T17:51:46.921Z,101364.45
2019-01-20T17:54:17.866Z,101367.86
2019-01-20T17:56:48.897Z,101361.30
2019-01-20T17:59:19.728Z,101362.64
2019-01-20T18:01:50.326Z,101372.06
2019-01-20T18:04:21.275Z,101376.33
2019-01-20T18:06:52.010Z,101372.31
2019-01-20T18:09:22.620Z,101374.02
2019-01-20T18:11:53.299Z,101373.52
2019-01-20T18:14:25.350Z,101377.42
2019-01-20T18:16:56.296Z,101389.35
2019-01-20T18:19:26.937Z,101378.41
2019-01-20T18:21:57.685Z,101381.28
2019-01-20T18:24:28.313Z,101382.77
2019-01-20T18:26:59.247Z,101382.77
2019-01-20T18:29:33.013Z,101387.51
2019-01-20T18:32:03.651Z,101387.62
2019-01-20T18:34:34.326Z,101392.64
2019-01-20T18:37:07.863Z,101397.49
2019-01-20T18:39:38.856Z,101398.45
2019-01-20T18:42:09.892Z,101399.25
2019-01-20T18:44:40.616Z,101403.42
2019-01-20T18:47:11.983Z,101402.88
2019-01-20T18:49:42.969Z,101402.52
2019-01-20T18:52:13.722Z,101405.58
2019-01-20T18:54:44.391Z,101412.55
2019-01-20T18:57:15.391Z,101409.78
2019-01-20T18:59:46.222Z,101411.64
2019-01-20T19:02:17.125Z,101409.45
2019-01-20T19:04:50.707Z,101417.16
2019-01-20T19:07:23.387Z,101419.43
2019-01-20T19:09:54.028Z,101422.36
2019-01-20T19:12:24.992Z,101425.11
2019-01-20T19:14:56.060Z,101425.59
2019-01-20T19:17:27.752Z,101426.56
2019-01-20T19:20:00.251Z,101430.39
2019-01-20T19:22:31.351Z,101433.54
2019-01-20T19:25:02.410Z,101437.36
2019-01-20T19:27:33.422Z,101432.38
2019-01-20T19:30:05.130Z,101429.34
2019-01-20T19:32:36.175Z,101427.48
2019-01-20T19:35:08.506Z,101433.06
2019-01-20T19:37:39.573Z,101428.63
2019-01-20T19:40:11.690Z,101432.36
2019-01-20T19:42:42.494Z,101433.86
2019-01-20T19:45:15.872Z,101439.93
2019-01-20T19:47:46.863Z,101436.80
2019-01-20T19:50:18.323Z,101442.30
2019-01-20T19:52:49.726Z,101442.80
2019-01-20T19:55:37.553Z,101442.88
2019-01-20T19:58:09.901Z,101447.91
2019-01-20T20:00:40.872Z,101448.11
2019-01-20T20:03:12.324Z,101454.48
2019-01-20T20:05:43.762Z,101454.79
2019-01-20T20:08:14.865Z,101460.55
2019-01-20T20:14:28.506Z,101464.77
2019-01-20T20:16:59.870Z,101470.97
2019-01-20T20:19:31.737Z,101474.33
2019-01-20T20:22:03.244Z,101480.98
2019-01-20T20:24:35.565Z,101485.02
2019-01-20T20:27:06.229Z,101489.94
2019-01-20T20:29:37.265Z,101488.97
2019-01-20T20:32:07.950Z,101492.80
2019-01-20T20:34:39.036Z,101500.53
2019-01-20T20:37:10.003Z,101505.95
2019-01-20T20:39:41.457Z,101506.90
2019-01-20T20:42:12.628Z,101508.17
2019-01-20T20:44:43.787Z,101508.30
2019-01-20T20:47:15.220Z,101514.10
2019-01-20T20:49:45.935Z,101514.87
2019-01-20T20:52:17.617Z,101516.02
2019-01-20T20:54:48.594Z,101526.66
2019-01-20T20:57:19.852Z,101526.86
2019-01-20T20:59:51.030Z,101524.67
2019-01-20T21:02:22.388Z,101527.23
2019-01-20T21:04:53.386Z,101530.05
2019-01-20T21:07:24.846Z,101532.13
2019-01-20T21:09:56.538Z,101534.05
2019-01-20T21:12:27.918Z,101530.71
2019-01-20T21:15:03.280Z,101532.17
2019-01-20T21:17:32.514Z,101536.20
2019-01-20T21:20:03.543Z,101532.95
2019-01-20T21:22:34.641Z,101537.97
2019-01-20T21:25:07.009Z,101536.70
2019-01-20T21:27:38.948Z,101529.70
2019-01-20T21:30:14.673Z,101539.63
2019-01-20T21:32:45.777Z,101543.55
2019-01-20T21:35:18.740Z,101542.57
2019-01-20T21:37:49.809Z,101545.61
2019-01-20T21:40:20.942Z,101551.80
2019-01-20T21:42:52.265Z,101553.64
2019-01-20T21:45:23.305Z,101553.33
2019-01-20T21:47:54.318Z,101556.25
2019-01-20T21:50:31.354Z,101554.08
2019-01-20T21:53:04.575Z,101561.09
2019-01-20T21:55:37.543Z,101566.67
2019-01-20T21:58:08.515Z,101564.42
2019-01-20T22:00:39.627Z,101568.81
2019-01-20T22:03:10.699Z,101567.85
2019-01-20T22:05:41.400Z,101568.74
2019-01-20T22:08:13.479Z,101568.63
2019-01-20T22:10:44.477Z,101571.67
2019-01-20T22:13:15.380Z,101569.77
2019-01-20T22:15:47.291Z,101566.44
2019-01-20T22:18:18.633Z,101570.66
2019-01-20T22:20:50.051Z,101570.47
2019-01-20T22:23:21.184Z,101573.43
2019-01-20T22:25:52.546Z,101573.52
2019-01-20T22:28:23.906Z,101564.61
2019-01-20T22:30:55.364Z,101570.72
2019-01-20T22:33:28.823Z,101573.52
2019-01-20T22:35:59.873Z,101566.02
2019-01-20T22:38:31.238Z,101566.44
2019-01-20T22:41:02.326Z,101566.06
2019-01-20T22:43:33.047Z,101572.54
2019-01-20T22:46:03.781Z,101571.38
2019-01-20T22:48:34.437Z,101576.17
2019-01-20T22:51:05.132Z,101577.53
2019-01-20T22:53:36.190Z,101586.30
2019-01-20T22:56:06.864Z,101582.23
2019-01-20T22:58:37.681Z,101583.06
2019-01-20T23:01:20.886Z,101591.31
2019-01-20T23:03:51.943Z,101588.46
2019-01-20T23:06:22.989Z,101591.31
2019-01-20T23:08:53.993Z,101588.65
2019-01-20T23:11:24.741Z,101590.05
2019-01-20T23:13:55.725Z,101596.62
2019-01-20T23:16:27.483Z,101589.17
2019-01-20T23:18:58.784Z,101591.20
2019-01-20T23:21:29.782Z,101588.37
2019-01-20T23:24:00.819Z,101589.17
2019-01-20T23:26:32.339Z,101593.36
2019-01-20T23:29:03.542Z,101585.03
2019-01-20T23:31:34.578Z,101579.65
2019-01-20T23:34:06.125Z,101579.98
2019-01-20T23:36:37.443Z,101580.44
2019-01-20T23:39:09.434Z,101582.61
2019-01-20T23:41:40.407Z,101581.48
2019-01-20T23:44:11.587Z,101578.61
2019-01-20T23:46:42.313Z,101579.17
2019-01-20T23:49:13.318Z,101585.55
2019-01-20T23:51:47.459Z,101578.17
2019-01-20T23:54:18.588Z,101581.84
2019-01-20T23:56:50.112Z,101580.81
2019-01-20T23:59:22.449Z,101588.58
